메인 페이지
METAR-TAF:

METAR-TAF

공항 :

Northeast Philadelphia Airport

필라델피아, 펜실베이니아, 미국

위도: 40-04-44N, 경도: 075-00-49W, 고도: 36m

현재 날씨관측

예보는 32분 전, 13:54시(UTC)에 발표되었습니다.
서북서7kt
온도 24°C
습도 61%
기압 1015 hPa
시정: 16.1km
고도 2600ft 상공 구름 보통
고도 3400ft 상공 구름 보통

METAR: KPNE 301354Z 30007KT 10SM SCT026 SCT034 24/16 A2996 RMK AO2 SLP143 T02390161

시각: 10:26 (14:26 UTC)

예보

예보는 2 시간 11분 전, 12:15시(UTC)에 발표되었습니다.
예보 대상 시간: 30일 12시부터 31일 12시까지 (UTC)
서북서9kt
시정: 10km
고도 10000ft 상공 구름 많음
30일 1900시부터 (UTC)
서북서6kt
시정: 10km
고도 25000ft 상공 구름 조금
31일 0500시부터 (UTC)
북서8kt
시정: 10km
고도 20000ft 상공 구름 조금

TAF: KPNE 301215Z 3012/3112 29009KT P6SM BKN100 FM301900 30006KT P6SM FEW250 FM310500 32008KT P6SM FEW200

4,000개 이상의 공항 관측 자료 및 예보 (METAR 및 TAF 보고).

지도상에서 검색 가능한 기상관측소가 노란 점과 빨간 점으로 표시되어 있습니다.

기상관측소 명을 보려면 표시 위로 마우스를 이동하세요.

날씨 관측과 예보를 보려면 클릭하세요.

지도 변경 : 확대하려면 엑스 표시가 있는 녹색 버튼, 축소하려면 빼기 표시가 있는 녹색 버튼, 다음 페이지의 지도를 보려면 녹색 화살표를 클릭하세요.


METAR-TAF: